Time;durP1;ratioP1;P1;durP2;ratioP2;P2;SDS_P1;SDS_P2;PMS_P1;PMS_P2;Temp;Humidity;BMP_temperature;BMP_pressure;BME280_temperature;BME280_humidity;BME280_pressure;Samples;Min_cycle;Max_cycle;Signal;HPM_P1;HPM_P2
2021/07/11 00:00:20;;;;;;;9.13;8.23;;;16.90;99.90;;;;;;5105227;28;20170;-68
2021/07/11 00:02:46;;;;;;;10.10;8.18;;;17.20;99.90;;;;;;5105140;28;20167;-68
2021/07/11 00:05:15;;;;;;;12.73;8.25;;;17.20;99.90;;;;;;5106130;28;20235;-69
2021/07/11 00:07:40;;;;;;;18.90;8.90;;;17.20;99.90;;;;;;5106224;28;20601;-68
2021/07/11 00:10:07;;;;;;;10.43;8.60;;;17.00;99.90;;;;;;5105922;28;20186;-68
2021/07/11 00:12:33;;;;;;;16.02;8.32;;;16.90;99.90;;;;;;5103506;28;20167;-68
2021/07/11 00:14:59;;;;;;;13.73;9.45;;;16.80;99.90;;;;;;5106013;28;20167;-68
2021/07/11 00:17:25;;;;;;;12.23;9.15;;;16.80;99.90;;;;;;5105931;28;20163;-68
2021/07/11 00:19:51;;;;;;;17.58;9.30;;;16.80;99.90;;;;;;5087847;28;20256;-68
2021/07/11 00:22:17;;;;;;;14.20;9.27;;;16.90;99.90;;;;;;5103160;28;20185;-68
2021/07/11 00:24:44;;;;;;;18.15;9.57;;;17.00;99.90;;;;;;5105448;28;20190;-68
2021/07/11 00:27:10;;;;;;;11.15;9.75;;;17.10;99.90;;;;;;5105925;28;20160;-68
2021/07/11 00:29:36;;;;;;;15.60;8.85;;;17.10;99.90;;;;;;5106060;28;20155;-68
2021/07/11 00:32:02;;;;;;;10.70;8.23;;;17.10;99.90;;;;;;5103256;28;20163;-68
2021/07/11 00:34:27;;;;;;;9.05;8.15;;;17.10;99.90;;;;;;5105757;28;20186;-68
2021/07/11 00:36:53;;;;;;;12.88;8.60;;;17.00;99.90;;;;;;5105862;28;20225;-68
2021/07/11 00:39:19;;;;;;;13.70;9.10;;;16.80;99.90;;;;;;5086493;28;20171;-68
2021/07/11 00:41:45;;;;;;;19.85;9.93;;;16.70;99.90;;;;;;5103198;28;20167;-68
2021/07/11 00:44:10;;;;;;;17.65;11.52;;;16.60;99.90;;;;;;5105681;28;20220;-68
2021/07/11 00:46:37;;;;;;;14.75;10.70;;;16.70;99.90;;;;;;5105837;28;20183;-69
2021/07/11 00:49:04;;;;;;;13.75;10.50;;;16.70;99.90;;;;;;5105837;28;20213;-69
2021/07/11 00:51:31;;;;;;;19.88;11.00;;;16.70;99.90;;;;;;5103073;28;20170;-70
2021/07/11 00:53:56;;;;;;;18.17;9.60;;;16.70;99.90;;;;;;5105562;28;20166;-69
2021/07/11 00:56:22;;;;;;;13.40;9.82;;;16.70;99.90;;;;;;5087664;28;20197;-69
2021/07/11 00:58:48;;;;;;;12.90;10.32;;;16.60;99.90;;;;;;5105703;28;20175;-69
2021/07/11 01:01:38;;;;;;;11.75;10.55;;;16.60;99.90;;;;;;5102977;28;20182;-70
2021/07/11 01:04:19;;;;;;;19.98;11.27;;;16.50;99.90;;;;;;5105808;28;20151;-70
2021/07/11 01:06:53;;;;;;;11.50;10.20;;;16.50;99.90;;;;;;5105709;28;20187;-70
2021/07/11 01:09:32;;;;;;;15.07;11.40;;;16.50;99.90;;;;;;5105225;28;20197;-70
2021/07/11 01:12:23;;;;;;;16.00;11.48;;;16.60;99.90;;;;;;5103044;28;20187;-67
2021/07/11 01:14:50;;;;;;;15.13;10.27;;;16.50;99.90;;;;;;5087476;28;20171;-68
2021/07/11 01:17:19;;;;;;;12.48;10.55;;;16.60;99.90;;;;;;5105440;28;20498;-68
2021/07/11 01:19:51;;;;;;;13.50;10.93;;;16.80;99.90;;;;;;5105559;28;20187;-68
2021/07/11 01:22:19;;;;;;;13.00;10.63;;;16.80;99.90;;;;;;5102578;28;20175;-68
2021/07/11 01:25:00;;;;;;;14.70;11.68;;;16.70;99.90;;;;;;5105272;28;20183;-68
2021/07/11 01:27:29;;;;;;;13.27;11.75;;;16.60;99.90;;;;;;5105488;28;20163;-68
2021/07/11 01:29:56;;;;;;;15.60;10.70;;;16.50;99.90;;;;;;5105524;28;20229;-68
2021/07/11 01:32:22;;;;;;;14.00;11.68;;;16.20;99.90;;;;;;5102579;28;20170;-68
2021/07/11 01:34:49;;;;;;;11.57;10.38;;;16.00;99.90;;;;;;5105377;28;20167;-69
2021/07/11 01:37:16;;;;;;;16.88;11.20;;;15.80;99.90;;;;;;5105417;28;20251;-68
2021/07/11 01:39:43;;;;;;;13.80;11.32;;;15.80;99.90;;;;;;5104966;28;20175;-68
2021/07/11 01:42:09;;;;;;;12.52;10.75;;;15.80;99.90;;;;;;5102615;28;20176;-68
2021/07/11 01:44:36;;;;;;;13.73;11.40;;;15.80;99.90;;;;;;5105286;28;20159;-68
2021/07/11 01:47:04;;;;;;;14.73;11.32;;;15.80;99.90;;;;;;5105322;28;20155;-68
2021/07/11 01:49:31;;;;;;;16.92;11.30;;;15.80;99.90;;;;;;5087446;28;20163;-69
2021/07/11 01:51:57;;;;;;;12.57;11.00;;;15.80;99.90;;;;;;5106358;28;20167;-68
2021/07/11 01:54:23;;;;;;;13.07;11.52;;;15.70;99.90;;;;;;5090121;28;20175;-68
2021/07/11 01:56:49;;;;;;;11.55;10.13;;;15.60;99.90;;;;;;5108894;28;20186;-69
2021/07/11 01:59:15;;;;;;;12.55;11.45;;;15.50;99.90;;;;;;5108551;28;20155;-68
2021/07/11 02:01:40;;;;;;;12.20;10.93;;;15.60;99.90;;;;;;5106135;28;20186;-69
2021/07/11 02:04:06;;;;;;;15.43;11.65;;;15.80;99.90;;;;;;5108475;28;20160;-69
2021/07/11 02:06:35;;;;;;;13.05;10.85;;;15.70;99.90;;;;;;5108545;28;20191;-68
2021/07/11 02:09:01;;;;;;;16.85;11.25;;;15.70;99.90;;;;;;5089838;28;20189;-69
2021/07/11 02:11:27;;;;;;;13.65;11.10;;;15.90;99.90;;;;;;5105799;28;20167;-68
2021/07/11 02:14:01;;;;;;;13.00;11.70;;;16.00;99.90;;;;;;5108227;28;20164;-69
2021/07/11 02:16:35;;;;;;;13.32;11.93;;;16.10;99.90;;;;;;5108365;28;20159;-69
2021/07/11 02:19:02;;;;;;;18.83;12.57;;;16.10;99.90;;;;;;5108251;28;20167;-68
2021/07/11 02:21:29;;;;;;;18.58;12.75;;;16.00;99.90;;;;;;5105582;28;20175;-69
2021/07/11 02:23:57;;;;;;;16.27;11.38;;;15.90;99.90;;;;;;5108196;28;20166;-69
2021/07/11 02:26:23;;;;;;;15.48;11.68;;;15.90;99.90;;;;;;5107988;28;20191;-69
2021/07/11 02:28:51;;;;;;;15.82;12.20;;;15.90;99.90;;;;;;5108220;28;20194;-69
2021/07/11 02:31:18;;;;;;;16.58;11.85;;;15.90;99.90;;;;;;5105416;28;20250;-69
2021/07/11 02:33:45;;;;;;;16.33;12.18;;;15.80;99.90;;;;;;5107875;28;20207;-69
2021/07/11 02:36:12;;;;;;;16.58;12.38;;;15.80;99.90;;;;;;5107712;28;20219;-68
2021/07/11 02:39:12;;;;;;;13.48;9.95;;;15.80;99.90;;;;;;5107993;28;20189;-68
2021/07/11 02:41:41;;;;;;;13.07;11.75;;;15.80;99.90;;;;;;5100175;28;20192;-68
2021/07/11 02:44:10;;;;;;;15.00;11.88;;;15.70;99.90;;;;;;5089751;28;20163;-68
2021/07/11 02:46:40;;;;;;;14.55;11.45;;;15.80;99.90;;;;;;5107800;28;20195;-69
2021/07/11 02:49:09;;;;;;;15.93;12.32;;;16.00;99.90;;;;;;5107826;28;20534;-69
2021/07/11 02:51:40;;;;;;;14.57;11.32;;;16.20;99.90;;;;;;5105234;28;20171;-68
2021/07/11 02:54:08;;;;;;;13.40;11.15;;;16.00;99.90;;;;;;5107612;28;20152;-68
2021/07/11 02:56:38;;;;;;;12.25;10.98;;;15.70;99.90;;;;;;5107976;28;20185;-68
2021/07/11 02:59:05;;;;;;;13.20;10.65;;;15.50;99.90;;;;;;5107646;28;20221;-68
2021/07/11 03:01:32;;;;;;;11.43;9.85;;;15.20;99.90;;;;;;5085758;28;20206;-68
2021/07/11 03:04:01;;;;;;;16.45;10.52;;;15.10;99.90;;;;;;5107626;28;20653;-68
2021/07/11 03:06:26;;;;;;;11.50;10.30;;;15.10;99.90;;;;;;5107149;28;20219;-68
2021/07/11 03:08:52;;;;;;;13.73;11.10;;;15.00;99.90;;;;;;5107254;28;20171;-68
2021/07/11 03:11:18;;;;;;;18.25;11.13;;;15.10;99.90;;;;;;5104291;28;20171;-69
2021/07/11 03:13:45;;;;;;;13.25;11.30;;;15.10;99.90;;;;;;5107396;28;20160;-69
2021/07/11 03:16:11;;;;;;;15.55;11.57;;;15.20;99.90;;;;;;5107147;28;20163;-69
2021/07/11 03:18:38;;;;;;;16.90;12.10;;;15.30;99.90;;;;;;5107214;28;20582;-69
2021/07/11 03:21:06;;;;;;;13.93;10.88;;;15.20;99.90;;;;;;5104612;28;20174;-68
2021/07/11 03:23:34;;;;;;;10.52;9.52;;;15.30;99.90;;;;;;5107002;28;20163;-69
2021/07/11 03:26:00;;;;;;;14.52;10.90;;;15.40;99.90;;;;;;5106835;28;20187;-69
2021/07/11 03:28:29;;;;;;;19.38;10.63;;;15.50;99.90;;;;;;5106961;28;20205;-68
2021/07/11 03:30:57;;;;;;;15.05;11.80;;;15.50;99.90;;;;;;5086090;28;20166;-68
2021/07/11 03:33:24;;;;;;;16.67;12.02;;;15.50;99.90;;;;;;5106718;28;20156;-68
2021/07/11 03:35:59;;;;;;;22.33;15.13;;;15.50;99.90;;;;;;5105683;28;20440;-68
2021/07/11 03:38:36;;;;;;;23.80;13.05;;;15.60;99.90;;;;;;5106657;28;20573;-69
2021/07/11 03:41:03;;;;;;;26.83;12.77;;;15.50;99.90;;;;;;5103888;28;20178;-68
2021/07/11 03:43:33;;;;;;;16.77;11.73;;;15.40;99.90;;;;;;5106621;28;20203;-69
2021/07/11 03:46:02;;;;;;;14.68;11.40;;;15.40;99.90;;;;;;5106742;28;20282;-68
2021/07/11 03:48:32;;;;;;;17.27;12.18;;;15.30;99.90;;;;;;5106524;28;20166;-68
2021/07/11 03:51:03;;;;;;;17.67;11.45;;;15.40;99.90;;;;;;5104099;28;20171;-68
2021/07/11 03:53:33;;;;;;;16.55;10.60;;;15.50;99.90;;;;;;5106485;28;20175;-69
2021/07/11 03:56:01;;;;;;;9.77;8.88;;;15.60;99.90;;;;;;5106336;28;20538;-68
2021/07/11 03:58:31;;;;;;;15.15;9.85;;;15.40;99.90;;;;;;5106360;28;20572;-69
2021/07/11 04:00:57;;;;;;;12.05;9.73;;;15.20;99.90;;;;;;5103635;28;20174;-69
2021/07/11 04:03:26;;;;;;;12.13;9.60;;;15.20;99.90;;;;;;5106063;28;20163;-69
2021/07/11 04:05:54;;;;;;;15.05;10.02;;;15.20;99.90;;;;;;5106149;28;20201;-69
2021/07/11 04:08:21;;;;;;;16.73;11.77;;;15.10;99.90;;;;;;5106193;28;20195;-69
2021/07/11 04:10:48;;;;;;;15.52;11.90;;;15.10;99.90;;;;;;5103321;28;20163;-69
2021/07/11 04:13:15;;;;;;;20.52;11.73;;;15.10;99.90;;;;;;5105928;28;20181;-69
2021/07/11 04:15:47;;;;;;;16.98;12.60;;;15.30;99.90;;;;;;5106266;28;20214;-68
2021/07/11 04:18:15;;;;;;;14.40;12.90;;;15.10;99.90;;;;;;5105964;28;20166;-69
2021/07/11 04:20:45;;;;;;;17.25;12.38;;;15.00;99.90;;;;;;5103506;28;20286;-69
2021/07/11 04:23:11;;;;;;;29.42;12.93;;;15.10;99.90;;;;;;5105865;28;20176;-68
2021/07/11 04:25:42;;;;;;;17.48;12.10;;;15.20;99.90;;;;;;5105918;28;20198;-69
2021/07/11 04:28:09;;;;;;;16.58;11.15;;;15.20;99.90;;;;;;5087894;28;20160;-68
2021/07/11 04:30:36;;;;;;;14.38;11.48;;;15.30;99.90;;;;;;5103275;28;20228;-68
2021/07/11 04:33:02;;;;;;;21.85;11.18;;;15.30;99.90;;;;;;5105910;28;20189;-68
2021/07/11 04:35:29;;;;;;;16.13;11.80;;;15.40;99.90;;;;;;5087493;28;20237;-68
2021/07/11 04:37:55;;;;;;;13.98;11.40;;;15.50;99.90;;;;;;5105887;28;20230;-69
2021/07/11 04:40:21;;;;;;;17.75;11.55;;;15.30;99.90;;;;;;5104106;28;20182;-69
2021/07/11 04:42:47;;;;;;;18.10;12.63;;;15.20;99.90;;;;;;5086365;28;20163;-68
2021/07/11 04:45:13;;;;;;;16.60;11.20;;;15.20;99.90;;;;;;5087302;28;20195;-69
2021/07/11 04:47:39;;;;;;;20.88;13.02;;;15.10;99.90;;;;;;5105878;28;20159;-69
2021/07/11 04:50:06;;;;;;;18.13;12.25;;;15.20;99.90;;;;;;5105692;28;20187;-68
2021/07/11 04:52:32;;;;;;;16.38;11.52;;;15.40;99.90;;;;;;5102751;28;20167;-69
2021/07/11 04:54:57;;;;;;;20.40;12.60;;;15.40;99.90;;;;;;5105318;28;20167;-68
2021/07/11 04:57:23;;;;;;;17.20;12.43;;;15.30;99.90;;;;;;5105611;28;20163;-69
2021/07/11 04:59:49;;;;;;;17.77;12.30;;;15.30;99.90;;;;;;5105450;28;20167;-68
2021/07/11 05:02:14;;;;;;;16.33;11.57;;;15.30;99.90;;;;;;5084666;28;20167;-69
2021/07/11 05:04:40;;;;;;;13.30;10.88;;;15.40;99.90;;;;;;5105604;28;20254;-69
2021/07/11 05:07:06;;;;;;;14.95;11.43;;;15.40;99.90;;;;;;5105813;28;20160;-68
2021/07/11 05:09:31;;;;;;;12.68;10.93;;;15.50;99.90;;;;;;5105020;28;20159;-69
2021/07/11 05:11:57;;;;;;;17.40;11.00;;;15.50;99.90;;;;;;5103000;28;20171;-69
2021/07/11 05:14:23;;;;;;;14.95;11.88;;;15.50;99.90;;;;;;5105369;28;20164;-69
2021/07/11 05:16:48;;;;;;;16.25;11.93;;;15.50;99.90;;;;;;5105532;28;20195;-68
2021/07/11 05:19:14;;;;;;;17.20;12.43;;;15.50;99.90;;;;;;5105169;28;20435;-68
2021/07/11 05:21:40;;;;;;;18.83;12.25;;;15.60;99.90;;;;;;5101505;28;20218;-68
2021/07/11 05:24:05;;;;;;;16.55;12.55;;;15.60;99.90;;;;;;5087435;28;20178;-68
2021/07/11 05:26:31;;;;;;;15.57;11.27;;;15.70;99.90;;;;;;5108804;28;20244;-69
2021/07/11 05:28:57;;;;;;;15.35;12.20;;;15.70;99.90;;;;;;5109358;28;20183;-69
2021/07/11 05:31:22;;;;;;;17.38;12.43;;;15.70;99.90;;;;;;5106374;28;20159;-69
2021/07/11 05:33:48;;;;;;;16.27;12.63;;;15.80;99.90;;;;;;5108961;28;20198;-69
2021/07/11 05:36:14;;;;;;;16.40;12.00;;;15.90;99.90;;;;;;5108831;28;20336;-69
2021/07/11 05:38:40;;;;;;;20.80;12.20;;;16.00;99.90;;;;;;5109172;28;20156;-69
2021/07/11 05:41:06;;;;;;;16.92;12.68;;;16.10;99.90;;;;;;5106220;28;20164;-68
2021/07/11 05:43:33;;;;;;;23.33;13.73;;;16.10;99.90;;;;;;5090732;28;20248;-69
2021/07/11 05:45:59;;;;;;;16.00;13.07;;;16.20;99.90;;;;;;5108878;28;20221;-69
2021/07/11 05:48:25;;;;;;;16.40;12.85;;;16.30;99.90;;;;;;5090484;28;20550;-69
2021/07/11 05:50:51;;;;;;;18.60;13.38;;;16.30;99.90;;;;;;5106258;28;20293;-69
2021/07/11 05:53:17;;;;;;;21.15;13.75;;;16.30;99.90;;;;;;5108768;28;20167;-68
2021/07/11 05:55:43;;;;;;;22.33;14.27;;;16.20;99.90;;;;;;5108365;28;20171;-69
2021/07/11 05:58:09;;;;;;;18.33;14.32;;;16.40;99.90;;;;;;5108929;28;20194;-69
2021/07/11 06:00:35;;;;;;;20.98;14.90;;;16.60;99.90;;;;;;5106100;28;20163;-68
2021/07/11 06:03:01;;;;;;;25.48;16.15;;;16.40;99.90;;;;;;5108624;28;20213;-68
2021/07/11 06:05:27;;;;;;;25.33;14.35;;;16.50;99.90;;;;;;5108521;28;20191;-68
2021/07/11 06:07:53;;;;;;;22.23;14.80;;;16.50;99.90;;;;;;5108687;28;20161;-69
2021/07/11 06:10:19;;;;;;;23.35;14.75;;;16.40;99.90;;;;;;5107080;28;20222;-69
2021/07/11 06:12:45;;;;;;;26.25;15.55;;;16.50;99.90;;;;;;5107287;28;20152;-69
2021/07/11 06:15:11;;;;;;;18.90;14.52;;;16.80;99.90;;;;;;5108123;28;20189;-69
2021/07/11 06:17:37;;;;;;;25.85;14.57;;;16.70;99.90;;;;;;5108480;28;20181;-69
2021/07/11 06:20:09;;;;;;;20.90;15.32;;;16.50;99.90;;;;;;5108084;28;20167;-69
2021/07/11 06:22:36;;;;;;;24.50;15.70;;;16.50;99.90;;;;;;5105801;28;20164;-69
2021/07/11 06:25:06;;;;;;;20.33;14.02;;;16.40;99.90;;;;;;5089620;28;20187;-69
2021/07/11 06:27:40;;;;;;;28.50;15.55;;;16.40;99.90;;;;;;5108328;28;20178;-69
2021/07/11 06:30:09;;;;;;;28.60;15.20;;;16.50;99.90;;;;;;5108149;28;20226;-69
2021/07/11 06:32:40;;;;;;;23.58;14.65;;;16.50;99.90;;;;;;5105562;28;20253;-69
2021/07/11 06:35:08;;;;;;;21.08;13.90;;;16.60;99.90;;;;;;5107908;28;20217;-69
2021/07/11 06:37:34;;;;;;;21.23;15.20;;;16.60;99.90;;;;;;5106748;28;20613;-69
2021/07/11 06:40:00;;;;;;;21.88;14.50;;;16.70;99.90;;;;;;5107516;28;20238;-69
2021/07/11 06:42:26;;;;;;;18.67;13.93;;;16.90;99.90;;;;;;5105090;28;20178;-69
2021/07/11 06:44:52;;;;;;;29.35;15.38;;;16.90;99.90;;;;;;5107688;28;20163;-69
2021/07/11 06:47:18;;;;;;;23.30;14.32;;;16.80;99.90;;;;;;5107552;28;20614;-69
2021/07/11 06:49:44;;;;;;;21.70;14.93;;;16.80;99.90;;;;;;5107482;28;20163;-69
2021/07/11 06:52:09;;;;;;;19.38;14.43;;;17.00;99.90;;;;;;5086625;28;20171;-68
2021/07/11 06:54:35;;;;;;;18.48;13.20;;;17.40;99.90;;;;;;5107438;28;20159;-69
2021/07/11 06:57:01;;;;;;;16.50;13.32;;;17.50;99.90;;;;;;5107621;28;20185;-69
2021/07/11 06:59:26;;;;;;;16.88;12.10;;;17.70;99.90;;;;;;5107290;28;20185;-68
2021/07/11 07:01:52;;;;;;;15.20;11.38;;;17.90;99.90;;;;;;5104765;28;20162;-69
2021/07/11 07:04:18;;;;;;;21.40;11.93;;;18.10;99.90;;;;;;5107048;28;20155;-69
2021/07/11 07:06:43;;;;;;;13.15;11.38;;;18.20;99.90;;;;;;5089051;28;20219;-68
2021/07/11 07:09:09;;;;;;;14.10;10.73;;;18.20;99.90;;;;;;5107423;28;20159;-68
2021/07/11 07:11:34;;;;;;;12.70;10.15;;;18.10;99.90;;;;;;5104593;28;20179;-68
2021/07/11 07:14:01;;;;;;;12.05;9.30;;;17.80;99.90;;;;;;5107162;28;20701;-68
2021/07/11 07:16:27;;;;;;;15.10;12.05;;;17.70;99.90;;;;;;5107015;28;20320;-68
2021/07/11 07:18:52;;;;;;;14.15;9.90;;;17.90;99.90;;;;;;5107198;28;20246;-68
2021/07/11 07:21:18;;;;;;;17.10;9.52;;;18.00;99.90;;;;;;5104292;28;20160;-68
2021/07/11 07:23:44;;;;;;;12.73;10.13;;;18.10;99.90;;;;;;5106882;28;20178;-68
2021/07/11 07:26:10;;;;;;;12.23;9.20;;;18.40;99.90;;;;;;5106370;28;20190;-68
2021/07/11 07:28:37;;;;;;;17.33;9.32;;;18.60;99.90;;;;;;5107185;28;20163;-68
2021/07/11 07:31:03;;;;;;;11.55;9.13;;;18.80;99.90;;;;;;5104302;28;20170;-68
2021/07/11 07:33:29;;;;;;;10.20;8.18;;;19.10;99.90;;;;;;5106725;28;20174;-68
2021/07/11 07:35:55;;;;;;;12.73;8.18;;;19.30;99.90;;;;;;5106709;28;20253;-68
2021/07/11 07:38:21;;;;;;;11.43;8.82;;;18.80;99.90;;;;;;5106581;28;20169;-68
2021/07/11 07:40:48;;;;;;;15.15;8.52;;;18.60;99.90;;;;;;5103662;28;20231;-68
2021/07/11 07:43:13;;;;;;;10.32;8.10;;;18.70;99.90;;;;;;5106464;28;20167;-68
2021/07/11 07:45:44;;;;;;;7.78;7.07;;;18.80;99.90;;;;;;5106736;28;20230;-68
2021/07/11 07:48:11;;;;;;;10.82;7.53;;;18.90;99.90;;;;;;5087481;28;20205;-68
2021/07/11 07:50:38;;;;;;;13.63;7.20;;;18.90;99.90;;;;;;5103839;28;20156;-68
2021/07/11 07:53:04;;;;;;;8.63;7.75;;;18.70;99.90;;;;;;5106567;28;20224;-68
2021/07/11 07:55:31;;;;;;;10.27;8.13;;;18.60;99.90;;;;;;5105829;28;20224;-68
2021/07/11 07:57:58;;;;;;;9.43;8.50;;;18.60;99.90;;;;;;5106398;28;20169;-68
2021/07/11 08:00:25;;;;;;;10.63;9.13;;;18.70;99.90;;;;;;5104315;28;20168;-68
2021/07/11 08:02:51;;;;;;;10.43;9.40;;;18.80;99.90;;;;;;5105311;28;20175;-68
2021/07/11 08:05:17;;;;;;;12.80;9.88;;;18.90;99.90;;;;;;5105895;28;20191;-69
2021/07/11 08:07:45;;;;;;;9.85;8.60;;;19.10;99.90;;;;;;5088105;28;20164;-68
2021/07/11 08:10:11;;;;;;;14.80;8.85;;;19.50;99.90;;;;;;5105783;28;20171;-68
2021/07/11 08:12:37;;;;;;;8.38;7.53;;;19.70;99.90;;;;;;5104039;28;20155;-68
2021/07/11 08:15:05;;;;;;;9.48;8.10;;;19.70;99.90;;;;;;5106220;28;20160;-68
2021/07/11 08:17:32;;;;;;;8.02;7.30;;;19.90;99.90;;;;;;5106192;28;20168;-68
2021/07/11 08:19:58;;;;;;;8.88;7.97;;;19.90;99.90;;;;;;5106092;28;20155;-68
2021/07/11 08:22:24;;;;;;;7.70;7.07;;;19.60;99.90;;;;;;5085130;28;20491;-68
2021/07/11 08:24:50;;;;;;;11.45;7.13;;;19.60;99.90;;;;;;5105917;28;20182;-68
2021/07/11 08:27:16;;;;;;;9.80;7.57;;;19.60;99.90;;;;;;5087918;28;20166;-68
2021/07/11 08:29:41;;;;;;;8.05;6.75;;;19.90;99.90;;;;;;5106037;28;20160;-68
2021/07/11 08:32:07;;;;;;;6.50;5.75;;;19.90;99.90;;;;;;5103370;28;20621;-68
2021/07/11 08:34:33;;;;;;;7.18;6.40;;;19.90;99.90;;;;;;5105735;28;20164;-68
2021/07/11 08:37:03;;;;;;;8.05;6.60;;;19.80;99.90;;;;;;5087950;28;20159;-68
2021/07/11 08:39:29;;;;;;;8.68;7.03;;;19.80;99.90;;;;;;5105541;28;20247;-68
2021/07/11 08:41:59;;;;;;;8.52;7.25;;;20.00;99.90;;;;;;5102971;28;20167;-68
2021/07/11 08:44:26;;;;;;;8.10;7.15;;;20.20;99.90;;;;;;5105643;28;20167;-68
2021/07/11 08:46:51;;;;;;;6.65;6.05;;;20.20;99.90;;;;;;5105800;28;20728;-68
2021/07/11 08:49:18;;;;;;;8.60;5.60;;;20.20;99.90;;;;;;5105473;28;20167;-68
2021/07/11 08:51:45;;;;;;;5.95;5.40;;;20.40;99.90;;;;;;5103288;28;20156;-68
2021/07/11 08:54:12;;;;;;;6.50;5.90;;;20.50;99.90;;;;;;5105315;28;20182;-68
2021/07/11 08:56:38;;;;;;;6.93;6.22;;;20.60;99.90;;;;;;5105417;28;20159;-68
2021/07/11 08:59:04;;;;;;;6.38;5.15;;;20.40;99.90;;;;;;5105826;28;20204;-68
2021/07/11 09:01:30;;;;;;;8.93;6.97;;;20.50;99.90;;;;;;5106960;28;20155;-68
2021/07/11 09:04:07;;;;;;;8.50;5.78;;;20.40;99.90;;;;;;5109310;28;20174;-68
2021/07/11 09:06:55;;;;;;;6.40;5.80;;;20.30;99.90;;;;;;5090432;28;20199;-68
2021/07/11 09:09:32;;;;;;;7.70;5.18;;;20.70;99.90;;;;;;5109102;28;20159;-68
2021/07/11 09:12:09;;;;;;;3.55;3.25;;;20.90;99.90;;;;;;5106769;28;20159;-68
2021/07/11 09:14:43;;;;;;;5.10;3.53;;;21.10;99.90;;;;;;5109354;28;20194;-68
2021/07/11 09:17:11;;;;;;;7.03;4.47;;;21.30;99.90;;;;;;5109474;28;20159;-68
2021/07/11 09:19:48;;;;;;;4.72;3.75;;;21.70;99.90;;;;;;5109435;28;20697;-68
2021/07/11 09:22:22;;;;;;;3.63;3.33;;;21.40;99.90;;;;;;5106515;28;20175;-68
2021/07/11 09:24:56;;;;;;;4.30;3.42;;;21.30;99.90;;;;;;5108894;28;20156;-68
2021/07/11 09:27:25;;;;;;;3.65;3.30;;;20.80;99.90;;;;;;5090685;28;20240;-68
2021/07/11 09:29:51;;;;;;;4.03;3.50;;;20.90;99.90;;;;;;5108801;28;20167;-68
2021/07/11 09:32:24;;;;;;;3.97;3.50;;;20.80;99.90;;;;;;5106242;28;20164;-68
2021/07/11 09:34:50;;;;;;;4.38;3.97;;;20.80;99.90;;;;;;5108807;28;20253;-68
2021/07/11 09:37:17;;;;;;;7.85;4.53;;;21.00;99.90;;;;;;5090800;28;20159;-68
2021/07/11 09:39:51;;;;;;;4.18;3.88;;;20.90;99.90;;;;;;5108718;28;20209;-68
2021/07/11 09:42:24;;;;;;;3.88;3.30;;;20.80;99.90;;;;;;5106005;28;20159;-68
2021/07/11 09:44:51;;;;;;;3.75;3.38;;;20.80;99.90;;;;;;5108903;28;20220;-68
2021/07/11 09:47:18;;;;;;;7.18;2.30;;;20.60;99.90;;;;;;5108674;28;20167;-68
2021/07/11 09:49:55;;;;;;;2.65;2.38;;;20.90;99.90;;;;;;5108719;28;20504;-67
2021/07/11 09:52:21;;;;;;;3.25;1.98;;;20.90;99.90;;;;;;5105708;28;20163;-68
2021/07/11 09:54:57;;;;;;;2.10;1.90;;;21.00;99.90;;;;;;5107315;28;20174;-68
2021/07/11 09:57:36;;;;;;;6.72;2.42;;;20.70;99.90;;;;;;5107664;28;20175;-68
2021/07/11 10:00:22;;;;;;;6.72;2.75;;;20.50;99.90;;;;;;5108140;28;20163;-68
2021/07/11 10:02:50;;;;;;;2.22;2.03;;;20.80;99.90;;;;;;5072101;28;20178;-68
2021/07/11 10:05:16;;;;;;;2.33;2.10;;;21.30;99.90;;;;;;5108377;28;20187;-68
2021/07/11 10:07:43;;;;;;;6.03;1.98;;;21.40;99.90;;;;;;5108364;28;20175;-68
2021/07/11 10:10:14;;;;;;;5.30;2.47;;;21.70;99.90;;;;;;5107912;28;20312;-68
2021/07/11 10:12:40;;;;;;;2.40;2.00;;;21.70;99.90;;;;;;5106640;28;20171;-68
2021/07/11 10:15:11;;;;;;;4.55;2.22;;;21.60;99.90;;;;;;5090246;28;20163;-68
2021/07/11 10:17:45;;;;;;;3.20;2.40;;;21.70;99.90;;;;;;5108722;28;20225;-68
2021/07/11 10:20:13;;;;;;;4.63;2.13;;;21.80;99.90;;;;;;5107892;28;20188;-68
2021/07/11 10:22:49;;;;;;;6.10;2.30;;;22.20;99.90;;;;;;5087566;28;20179;-68
2021/07/11 10:25:20;;;;;;;6.75;2.38;;;22.00;99.90;;;;;;5107366;28;20214;-68
2021/07/11 10:27:47;;;;;;;1.80;1.65;;;21.70;99.90;;;;;;5089721;28;20167;-68
2021/07/11 10:30:14;;;;;;;1.88;1.55;;;21.50;99.90;;;;;;5107207;28;20166;-67
2021/07/11 10:32:40;;;;;;;1.70;1.60;;;21.80;99.90;;;;;;5106187;28;20181;-67
2021/07/11 10:35:17;;;;;;;6.05;1.60;;;21.90;99.90;;;;;;5107652;28;20672;-67
2021/07/11 10:37:54;;;;;;;1.40;1.30;;;21.90;99.90;;;;;;5107828;28;20173;-67
2021/07/11 10:40:30;;;;;;;1.75;1.40;;;22.50;99.90;;;;;;5105885;28;20548;-67
2021/07/11 10:42:56;;;;;;;3.83;1.25;;;22.70;99.90;;;;;;5107588;28;20186;-68
2021/07/11 10:45:22;;;;;;;6.35;1.83;;;22.30;99.90;;;;;;5089299;28;20206;-68
2021/07/11 10:47:48;;;;;;;1.30;1.20;;;22.20;99.90;;;;;;5107691;28;20239;-67
2021/07/11 10:50:41;;;;;;;3.15;1.60;;;21.90;99.90;;;;;;5106830;28;20617;-67
2021/07/11 10:53:17;;;;;;;1.77;1.55;;;21.90;99.90;;;;;;5103558;28;20171;-69
2021/07/11 10:55:43;;;;;;;1.98;1.75;;;21.90;99.90;;;;;;5107252;28;20174;-68
2021/07/11 10:58:14;;;;;;;1.90;1.60;;;21.70;99.90;;;;;;5089069;28;20620;-68
2021/07/11 11:00:41;;;;;;;3.05;1.70;;;21.80;99.90;;;;;;5104469;28;20159;-68
2021/07/11 11:03:22;;;;;;;2.05;1.60;;;21.70;99.90;;;;;;5107138;28;20180;-68
2021/07/11 11:05:50;;;;;;;1.98;1.40;;;21.90;99.90;;;;;;5107136;28;20187;-68
2021/07/11 11:08:22;;;;;;;2.38;2.00;;;22.00;99.90;;;;;;5088645;28;20211;-70
2021/07/11 11:10:49;;;;;;;3.10;1.70;;;22.10;99.90;;;;;;5104172;28;20257;-68
2021/07/11 11:13:19;;;;;;;3.35;1.35;;;22.50;99.90;;;;;;5106855;28;20187;-68
2021/07/11 11:15:50;;;;;;;1.70;1.40;;;22.90;99.90;;;;;;5088520;28;20167;-68
2021/07/11 11:18:31;;;;;;;2.08;1.50;;;22.90;99.90;;;;;;5107127;28;20166;-69
2021/07/11 11:21:04;;;;;;;1.80;1.60;;;22.40;99.90;;;;;;5104537;28;20159;-68
2021/07/11 11:23:39;;;;;;;1.48;1.23;;;22.00;99.90;;;;;;5106251;28;20718;-68
2021/07/11 11:26:07;;;;;;;5.03;1.60;;;22.20;99.90;;;;;;5106933;28;20193;-68
2021/07/11 11:28:40;;;;;;;2.97;1.50;;;22.00;99.90;;;;;;5107007;28;20155;-68
2021/07/11 11:31:13;;;;;;;3.38;1.40;;;22.00;99.90;;;;;;5104392;28;20667;-68
2021/07/11 11:33:59;;;;;;;7.35;1.35;;;22.30;99.90;;;;;;5107018;28;20189;-68
2021/07/11 11:36:47;;;;;;;1.33;1.17;;;22.70;99.90;;;;;;5106661;28;20279;-68
2021/07/11 11:39:28;;;;;;;1.50;1.40;;;22.70;99.90;;;;;;5106733;28;20190;-68
2021/07/11 11:41:54;;;;;;;1.35;1.25;;;22.80;99.90;;;;;;5104007;28;20766;-68
2021/07/11 11:44:21;;;;;;;1.23;1.13;;;22.90;99.90;;;;;;5088160;28;20171;-68
2021/07/11 11:46:50;;;;;;;3.50;1.48;;;23.00;99.90;;;;;;5088572;28;20223;-68
2021/07/11 11:49:18;;;;;;;1.85;1.13;;;23.20;99.90;;;;;;5106531;28;20167;-68
2021/07/11 11:51:51;;;;;;;1.38;1.25;;;23.20;99.90;;;;;;5103948;28;20160;-68
2021/07/11 11:54:23;;;;;;;1.45;1.10;;;23.30;99.90;;;;;;5106483;28;20641;-68
2021/07/11 11:56:49;;;;;;;1.40;1.30;;;23.70;99.90;;;;;;5106364;28;20175;-68
2021/07/11 11:59:15;;;;;;;1.98;1.42;;;23.70;99.90;;;;;;5106184;28;20159;-68
2021/07/11 12:01:40;;;;;;;1.77;1.13;;;23.50;99.90;;;;;;5103862;28;20583;-68
2021/07/11 12:04:14;;;;;;;5.75;1.48;;;23.10;99.90;;;;;;5088284;28;20175;-68
2021/07/11 12:06:41;;;;;;;4.45;1.15;;;23.00;99.90;;;;;;5106524;28;20189;-68
2021/07/11 12:09:09;;;;;;;1.50;1.40;;;22.70;99.90;;;;;;5106502;28;20155;-68
2021/07/11 12:11:35;;;;;;;3.13;1.30;;;22.80;99.90;;;;;;5103644;28;20159;-68
2021/07/11 12:14:15;;;;;;;4.45;1.45;;;23.00;99.90;;;;;;5106261;28;20175;-68
2021/07/11 12:16:42;;;;;;;1.33;1.23;;;23.00;99.90;;;;;;5106085;28;20524;-68
2021/07/11 12:19:09;;;;;;;3.47;1.20;;;23.10;99.90;;;;;;5106275;28;20506;-68
2021/07/11 12:21:43;;;;;;;4.03;1.48;;;23.00;99.90;;;;;;5103501;28;20655;-68
2021/07/11 12:24:18;;;;;;;1.88;1.42;;;22.90;99.90;;;;;;5106176;28;20197;-68
2021/07/11 12:26:46;;;;;;;1.30;1.20;;;22.80;99.90;;;;;;5105865;28;20187;-68
2021/07/11 12:29:18;;;;;;;1.33;1.23;;;23.00;99.90;;;;;;5087838;28;20168;-68
2021/07/11 12:31:44;;;;;;;1.55;1.20;;;23.20;99.90;;;;;;5103430;28;20520;-68
2021/07/11 12:34:16;;;;;;;2.45;1.63;;;22.90;99.90;;;;;;5105704;28;20656;-68
2021/07/11 12:36:56;;;;;;;3.60;1.77;;;23.20;99.90;;;;;;5105791;28;20240;-68
2021/07/11 12:39:24;;;;;;;4.35;2.13;;;23.50;99.90;;;;;;5105886;28;20194;-68
2021/07/11 12:41:51;;;;;;;2.90;2.33;;;23.20;99.90;;;;;;5103156;28;20187;-68